Time;durP1;ratioP1;P1;durP2;ratioP2;P2;SDS_P1;SDS_P2;PMS_P1;PMS_P2;Temp;Humidity;BMP_temperature;BMP_pressure;BME280_temperature;BME280_humidity;BME280_pressure;Samples;Min_cycle;Max_cycle;Signal;HPM_P1;HPM_P2
2021/03/10 00:01:30;;;;;;;84.40;70.27;;;;;;;0.56;58.99;98851.13;4979535;28;20037;-66
2021/03/10 00:03:56;;;;;;;77.07;68.43;;;;;;;0.53;59.16;98850.22;4978953;28;20043;-66
2021/03/10 00:06:21;;;;;;;97.00;79.73;;;;;;;0.53;58.48;98846.03;4977766;28;20058;-66
2021/03/10 00:08:46;;;;;;;95.80;77.83;;;;;;;0.55;58.74;98851.97;4981220;28;20372;-66
2021/03/10 00:11:12;;;;;;;111.57;84.37;;;;;;;0.50;58.85;98845.97;4978539;28;20045;-66
2021/03/10 00:13:37;;;;;;;91.73;74.73;;;;;;;0.54;58.99;98850.25;4981322;28;20101;-67
2021/03/10 00:16:03;;;;;;;91.03;74.93;;;;;;;0.66;58.25;98847.16;4978560;28;20153;-66
2021/03/10 00:18:28;;;;;;;88.60;73.23;;;;;;;0.61;58.04;98849.56;4978768;28;20431;-66
2021/03/10 00:20:53;;;;;;;112.47;86.97;;;;;;;0.64;58.36;98848.78;4978524;28;20035;-66
2021/03/10 00:23:19;;;;;;;143.97;86.07;;;;;;;0.65;58.47;98853.88;4979366;28;20400;-66
2021/03/10 00:25:44;;;;;;;85.47;74.97;;;;;;;0.63;58.36;98847.09;4980397;28;20147;-65
2021/03/10 00:28:10;;;;;;;48.63;39.63;;;;;;;0.62;58.94;98845.38;4980709;28;20126;-67
2021/03/10 00:30:35;;;;;;;49.63;44.30;;;;;;;0.63;59.32;98849.63;4978067;28;20031;-67
2021/03/10 00:33:01;;;;;;;42.40;38.10;;;;;;;0.61;59.22;98864.72;4979091;28;20031;-67
2021/03/10 00:35:26;;;;;;;61.07;54.87;;;;;;;0.67;59.19;98853.94;4979630;28;20096;-66
2021/03/10 00:37:52;;;;;;;76.23;67.33;;;;;;;0.65;58.92;98856.41;4979412;28;20030;-68
2021/03/10 00:40:17;;;;;;;56.50;50.47;;;;;;;0.68;58.94;98859.00;4980984;28;20038;-66
2021/03/10 00:42:43;;;;;;;78.43;69.20;;;;;;;0.69;58.92;98840.53;4959094;28;20131;-67
2021/03/10 00:45:09;;;;;;;114.53;92.00;;;;;;;0.77;59.75;98849.13;4981706;28;20364;-65
2021/03/10 00:47:35;;;;;;;106.17;82.67;;;;;;;0.78;60.12;98850.81;4978788;28;20224;-66
2021/03/10 00:50:00;;;;;;;92.03;74.83;;;;;;;0.78;59.13;98847.44;4979649;28;20427;-67
2021/03/10 00:52:26;;;;;;;84.17;74.60;;;;;;;0.81;59.92;98844.97;4979539;28;20026;-71
2021/03/10 00:54:51;;;;;;;75.60;67.80;;;;;;;0.85;59.41;98847.63;4979215;28;20162;-71
2021/03/10 00:57:17;;;;;;;74.67;64.93;;;;;;;0.89;59.43;98839.28;4978026;28;20039;-71
2021/03/10 00:59:42;;;;;;;80.63;71.53;;;;;;;0.92;59.08;98843.56;4981531;28;20022;-71
2021/03/10 01:02:07;;;;;;;82.90;72.70;;;;;;;0.92;59.44;98841.06;4982651;28;20055;-71
2021/03/10 01:04:33;;;;;;;70.40;62.77;;;;;;;0.89;58.71;98839.28;4987349;28;20061;-70
2021/03/10 01:06:58;;;;;;;86.10;75.17;;;;;;;0.92;59.01;98846.09;4982363;28;20026;-70
2021/03/10 01:09:24;;;;;;;87.87;75.43;;;;;;;0.94;59.04;98839.41;4980444;28;20175;-71
2021/03/10 01:11:49;;;;;;;90.83;78.40;;;;;;;0.98;59.60;98845.41;4979597;28;20388;-71
2021/03/10 01:14:15;;;;;;;96.20;83.03;;;;;;;0.82;59.81;98839.97;4981414;28;20026;-71
2021/03/10 01:16:41;;;;;;;110.43;88.67;;;;;;;0.88;59.69;98840.13;4981515;28;20299;-70
2021/03/10 01:19:07;;;;;;;103.83;84.90;;;;;;;0.87;59.91;98838.41;4981032;28;20080;-72
2021/03/10 01:21:32;;;;;;;104.80;84.30;;;;;;;0.70;60.89;98834.66;4982612;28;20034;-71
2021/03/10 01:23:58;;;;;;;116.30;88.40;;;;;;;0.66;60.88;98834.56;4982362;28;20027;-72
2021/03/10 01:26:23;;;;;;;113.37;88.90;;;;;;;0.58;61.02;98833.53;4980431;28;20034;-72
2021/03/10 01:28:49;;;;;;;129.00;88.77;;;;;;;0.51;61.39;98835.03;4979150;28;20027;-71
2021/03/10 01:31:14;;;;;;;143.57;94.13;;;;;;;0.53;61.35;98830.88;4979839;28;20277;-71
2021/03/10 01:33:40;;;;;;;142.07;91.70;;;;;;;0.51;61.86;98819.91;4980948;28;20051;-72
2021/03/10 01:36:06;;;;;;;164.07;99.90;;;;;;;0.43;62.16;98821.38;4977816;28;20098;-71
2021/03/10 01:38:31;;;;;;;232.53;112.80;;;;;;;0.52;61.60;98819.09;4975515;28;20080;-72
2021/03/10 01:40:57;;;;;;;202.17;107.17;;;;;;;0.47;61.68;98813.09;4978715;28;20086;-72
2021/03/10 01:43:22;;;;;;;199.43;104.00;;;;;;;0.54;61.61;98820.00;4976607;28;20034;-72
2021/03/10 01:45:47;;;;;;;149.57;93.83;;;;;;;0.48;61.77;98824.88;4977528;28;20087;-71
2021/03/10 01:48:16;;;;;;;143.53;92.20;;;;;;;0.50;62.38;98818.22;4977602;28;20066;-71
2021/03/10 01:50:41;;;;;;;165.80;101.40;;;;;;;0.49;62.72;98816.50;4976972;28;20443;-71
2021/03/10 01:53:07;;;;;;;152.57;97.17;;;;;;;0.49;61.94;98815.66;4978672;28;20150;-71
2021/03/10 01:55:32;;;;;;;170.30;102.77;;;;;;;0.46;62.08;98811.41;4977514;28;20027;-71
2021/03/10 01:57:58;;;;;;;159.17;99.30;;;;;;;0.57;61.48;98804.94;4979375;28;20034;-71
2021/03/10 02:00:25;;;;;;;163.17;97.83;;;;;;;0.58;61.91;98806.63;4978490;28;20106;-71
2021/03/10 02:02:51;;;;;;;173.20;103.53;;;;;;;0.55;61.48;98810.75;4978703;28;20039;-71
2021/03/10 02:05:22;;;;;;;172.97;103.17;;;;;;;0.67;60.52;98811.03;4977809;28;20030;-70
2021/03/10 02:08:36;;;;;;;174.73;101.43;;;;;;;0.68;60.93;98817.81;4978144;28;20026;-71
2021/03/10 02:11:20;;;;;;;196.67;103.63;;;;;;;0.72;61.44;98817.88;4975815;28;20034;-70
2021/03/10 02:13:45;;;;;;;199.50;103.20;;;;;;;0.68;61.20;98821.16;4976140;28;20058;-70
2021/03/10 02:16:21;;;;;;;213.40;108.43;;;;;;;0.70;60.99;98814.47;4978266;28;20058;-71
2021/03/10 02:18:55;;;;;;;236.50;111.60;;;;;;;0.77;61.66;98810.41;4977680;28;20015;-71
2021/03/10 02:21:29;;;;;;;284.53;117.73;;;;;;;0.75;61.91;98805.34;4974219;28;20036;-70
2021/03/10 02:24:19;;;;;;;294.70;118.93;;;;;;;0.78;61.22;98805.41;4976839;28;20089;-71
2021/03/10 02:27:08;;;;;;;245.70;114.53;;;;;;;0.69;61.17;98805.19;4978133;28;20081;-71
2021/03/10 02:29:37;;;;;;;289.50;117.60;;;;;;;0.72;61.58;98807.78;4929895;29;20031;-69
2021/03/10 02:32:04;;;;;;;294.40;120.43;;;;;;;0.72;60.60;98817.06;4930641;29;20040;-71
2021/03/10 02:34:31;;;;;;;291.10;116.07;;;;;;;0.73;60.73;98812.00;4931099;29;20100;-70
2021/03/10 02:36:58;;;;;;;300.63;122.10;;;;;;;0.76;60.65;98809.59;4932721;29;20071;-70
2021/03/10 02:39:24;;;;;;;246.27;115.47;;;;;;;0.76;60.53;98811.25;4934272;29;20055;-71
2021/03/10 02:41:50;;;;;;;243.33;114.10;;;;;;;0.77;60.77;98802.84;4930692;29;20048;-71
2021/03/10 02:44:18;;;;;;;293.83;120.23;;;;;;;0.83;60.75;98805.50;4933489;29;20301;-71
2021/03/10 02:46:45;;;;;;;331.83;125.67;;;;;;;0.81;61.60;98812.19;4932621;29;20043;-72
2021/03/10 02:49:10;;;;;;;307.73;124.10;;;;;;;0.81;61.31;98812.19;4919003;29;20320;-71
2021/03/10 02:51:37;;;;;;;264.43;119.77;;;;;;;0.81;61.06;98808.00;4932573;29;20106;-72
2021/03/10 02:54:04;;;;;;;340.43;123.67;;;;;;;0.84;60.73;98814.78;4934265;29;20042;-70
2021/03/10 02:56:30;;;;;;;320.53;125.10;;;;;;;0.81;60.80;98815.56;4931629;29;20115;-70
2021/03/10 02:58:56;;;;;;;251.50;117.93;;;;;;;0.83;61.21;98824.03;4930640;29;20113;-71
2021/03/10 03:01:22;;;;;;;265.40;119.97;;;;;;;0.85;61.18;98824.91;4920256;29;20125;-71
2021/03/10 03:03:47;;;;;;;324.97;123.23;;;;;;;0.87;60.96;98823.28;4934075;29;20067;-72
2021/03/10 03:06:13;;;;;;;257.00;117.63;;;;;;;0.90;60.92;98823.34;4952021;28;20046;-71
2021/03/10 03:08:38;;;;;;;358.50;128.70;;;;;;;0.85;60.87;98822.38;4976859;28;20077;-71
2021/03/10 03:11:05;;;;;;;335.17;134.03;;;;;;;0.85;60.82;98827.44;4974822;28;20276;-71
2021/03/10 03:13:31;;;;;;;346.93;126.20;;;;;;;0.85;60.78;98824.91;4974299;28;20034;-71
2021/03/10 03:15:59;;;;;;;337.77;126.87;;;;;;;0.88;61.00;98822.47;4975055;28;20027;-71
2021/03/10 03:18:26;;;;;;;364.57;128.23;;;;;;;0.93;60.92;98812.47;4976713;28;20334;-71
2021/03/10 03:20:53;;;;;;;301.43;128.57;;;;;;;0.93;61.33;98820.06;4976808;28;20034;-72
2021/03/10 03:23:21;;;;;;;278.97;125.03;;;;;;;1.04;61.26;98830.38;4976600;28;20034;-71
2021/03/10 03:25:48;;;;;;;274.37;125.83;;;;;;;1.03;60.40;98819.41;4976221;28;20035;-72
2021/03/10 03:28:17;;;;;;;280.87;126.37;;;;;;;1.07;60.14;98821.19;4975689;28;20468;-70
2021/03/10 03:30:44;;;;;;;285.70;123.37;;;;;;;1.07;59.84;98825.38;4976676;28;20033;-71
2021/03/10 03:33:16;;;;;;;287.97;123.90;;;;;;;0.99;60.21;98821.84;4981492;28;20018;-72
2021/03/10 03:35:43;;;;;;;315.43;130.13;;;;;;;0.87;59.91;98828.31;4980369;28;20041;-70
2021/03/10 03:38:09;;;;;;;366.87;132.67;;;;;;;0.88;59.72;98834.22;4980666;28;20027;-70
2021/03/10 03:40:36;;;;;;;347.83;129.50;;;;;;;0.96;59.46;98829.34;4980467;28;20388;-71
2021/03/10 03:43:06;;;;;;;294.43;126.97;;;;;;;0.97;59.20;98836.09;4980264;28;20058;-71
2021/03/10 03:45:31;;;;;;;288.93;131.60;;;;;;;0.93;59.68;98829.28;4980093;28;20065;-71
2021/03/10 03:47:57;;;;;;;278.97;118.43;;;;;;;0.98;59.43;98830.25;4980220;28;20051;-71
2021/03/10 03:50:25;;;;;;;355.57;125.73;;;;;;;0.97;60.01;98826.00;4980608;28;20041;-71
2021/03/10 03:52:52;;;;;;;378.93;124.80;;;;;;;0.98;59.75;98826.03;4981233;28;20379;-70
2021/03/10 03:55:17;;;;;;;329.97;124.57;;;;;;;0.93;59.72;98823.41;4980377;28;20634;-71
2021/03/10 03:57:43;;;;;;;379.20;129.57;;;;;;;0.87;60.42;98824.94;4980030;28;20038;-70
2021/03/10 04:00:12;;;;;;;382.90;130.73;;;;;;;0.91;61.01;98832.63;4980458;28;20063;-71
2021/03/10 04:02:37;;;;;;;370.17;128.87;;;;;;;0.86;63.04;98835.84;4980753;28;20030;-71
2021/03/10 04:05:03;;;;;;;385.67;131.20;;;;;;;0.89;63.62;98841.81;4980554;28;20269;-72
2021/03/10 04:07:29;;;;;;;314.07;129.23;;;;;;;0.96;64.57;98844.50;4978977;28;20049;-71
2021/03/10 04:09:54;;;;;;;371.97;130.50;;;;;;;0.90;64.77;98845.19;4980713;28;20015;-71
2021/03/10 04:12:20;;;;;;;401.27;134.00;;;;;;;0.85;66.93;98845.09;4980949;28;20113;-72
2021/03/10 04:14:45;;;;;;;384.47;130.37;;;;;;;0.83;68.07;98838.31;4980734;28;20030;-71
2021/03/10 04:17:11;;;;;;;407.40;136.20;;;;;;;0.81;69.60;98842.47;4978759;28;20557;-70
2021/03/10 04:19:36;;;;;;;407.27;131.53;;;;;;;0.74;70.15;98844.00;4980228;28;20101;-71
2021/03/10 04:22:02;;;;;;;402.40;133.50;;;;;;;0.69;70.90;98853.13;4980550;28;20118;-70
2021/03/10 04:24:27;;;;;;;380.83;132.53;;;;;;;0.71;71.03;98848.13;4978361;28;20034;-70
2021/03/10 04:26:53;;;;;;;405.07;133.83;;;;;;;0.71;71.31;98854.03;4979515;28;20022;-72
2021/03/10 04:29:18;;;;;;;416.20;134.00;;;;;;;0.63;72.28;98855.53;4979649;28;20110;-71
2021/03/10 04:31:43;;;;;;;329.97;125.53;;;;;;;0.63;72.62;98860.56;4979232;28;20037;-71
2021/03/10 04:34:09;;;;;;;320.90;127.37;;;;;;;0.65;72.59;98855.53;4981112;28;20014;-72
2021/03/10 04:36:34;;;;;;;375.50;129.33;;;;;;;0.57;72.53;98857.88;4981546;28;20038;-71
2021/03/10 04:39:00;;;;;;;405.13;132.70;;;;;;;0.56;73.10;98863.75;4980930;28;20034;-71
2021/03/10 04:41:25;;;;;;;414.90;131.67;;;;;;;0.60;73.26;98860.47;4981208;28;20030;-71
2021/03/10 04:43:51;;;;;;;402.33;131.87;;;;;;;0.64;73.07;98858.88;4981809;28;20066;-70
2021/03/10 04:46:16;;;;;;;396.70;132.77;;;;;;;0.65;72.74;98863.13;4980563;28;20023;-71
2021/03/10 04:48:41;;;;;;;390.17;129.87;;;;;;;0.69;72.78;98863.22;4980090;28;20130;-71
2021/03/10 04:51:07;;;;;;;407.00;133.83;;;;;;;0.74;72.96;98865.84;4978696;28;20280;-71
2021/03/10 04:53:32;;;;;;;408.13;132.70;;;;;;;0.74;73.33;98860.81;4979574;28;20034;-71
2021/03/10 04:55:58;;;;;;;420.33;134.27;;;;;;;0.77;73.52;98868.44;4978582;28;20361;-70
2021/03/10 04:58:23;;;;;;;414.33;136.77;;;;;;;0.83;74.13;98874.50;4980114;28;20104;-70
2021/03/10 05:00:49;;;;;;;418.57;137.93;;;;;;;0.80;73.60;98869.41;4979594;28;20050;-71
2021/03/10 05:03:14;;;;;;;418.60;139.53;;;;;;;0.80;73.99;98868.53;4977551;28;20039;-71
2021/03/10 05:05:40;;;;;;;419.80;141.10;;;;;;;0.69;73.35;98867.41;4978934;28;20041;-71
2021/03/10 05:08:05;;;;;;;414.17;140.23;;;;;;;0.65;73.09;98871.53;4980131;28;20060;-71
2021/03/10 05:10:31;;;;;;;414.00;138.00;;;;;;;0.55;72.65;98867.09;4979612;28;20023;-72
2021/03/10 05:12:56;;;;;;;423.30;138.43;;;;;;;0.54;72.75;98872.09;4979162;28;20138;-71
2021/03/10 05:15:21;;;;;;;418.97;139.13;;;;;;;0.50;72.53;98868.66;4980030;28;20053;-69
2021/03/10 05:17:47;;;;;;;427.90;143.43;;;;;;;0.44;72.40;98876.91;4978799;28;20034;-71
2021/03/10 05:20:13;;;;;;;422.40;139.33;;;;;;;0.40;72.50;98869.25;4979304;28;20372;-70
2021/03/10 05:22:39;;;;;;;422.73;140.57;;;;;;;0.44;72.62;98868.50;4979624;28;20265;-71
2021/03/10 05:25:07;;;;;;;422.13;138.53;;;;;;;0.44;73.02;98876.91;4982235;28;20038;-72
2021/03/10 05:27:33;;;;;;;418.27;139.10;;;;;;;0.32;73.35;98874.09;4982390;28;20361;-71
2021/03/10 05:29:59;;;;;;;421.00;140.57;;;;;;;0.27;73.56;98869.75;4979811;28;20707;-71
2021/03/10 05:32:25;;;;;;;421.20;139.57;;;;;;;0.25;73.58;98876.44;4980510;28;20022;-72
2021/03/10 05:34:50;;;;;;;424.77;137.70;;;;;;;0.24;74.18;98877.25;4980002;28;20408;-72
2021/03/10 05:37:16;;;;;;;420.63;136.20;;;;;;;0.26;74.92;98873.06;4980663;28;20038;-72
2021/03/10 05:39:41;;;;;;;416.10;136.00;;;;;;;0.28;75.11;98876.50;4979687;28;20214;-71
2021/03/10 05:42:07;;;;;;;289.13;125.47;;;;;;;0.36;74.99;98877.53;4978705;28;20629;-72
2021/03/10 05:44:33;;;;;;;265.60;123.37;;;;;;;0.37;75.46;98870.03;4979875;28;20031;-65
2021/03/10 05:46:59;;;;;;;258.53;121.83;;;;;;;0.37;74.89;98874.22;4977744;28;20026;-65
2021/03/10 05:49:24;;;;;;;256.07;123.23;;;;;;;0.37;75.37;98876.72;4978682;28;20058;-65
2021/03/10 05:51:50;;;;;;;254.80;124.50;;;;;;;0.33;75.18;98877.47;4974557;28;20039;-67
2021/03/10 05:54:18;;;;;;;258.23;123.60;;;;;;;0.24;75.41;98877.25;4978992;28;20471;-65
2021/03/10 05:56:45;;;;;;;272.27;124.10;;;;;;;0.23;75.73;98876.38;4976462;28;20047;-65
2021/03/10 05:59:11;;;;;;;270.80;125.13;;;;;;;0.20;76.15;98878.84;4977931;28;20034;-65
2021/03/10 06:01:36;;;;;;;271.20;125.20;;;;;;;0.28;76.03;98882.41;4976725;28;20138;-66
2021/03/10 06:04:04;;;;;;;265.77;124.93;;;;;;;0.39;75.60;98877.59;4975936;28;20035;-66
2021/03/10 06:06:40;;;;;;;264.27;124.97;;;;;;;0.46;75.51;98879.50;4978857;28;20190;-65
2021/03/10 06:09:14;;;;;;;273.30;126.37;;;;;;;0.54;75.23;98887.25;4979516;28;20031;-65
2021/03/10 06:11:52;;;;;;;342.17;134.07;;;;;;;0.50;75.18;98885.47;4977068;28;20172;-65
2021/03/10 06:14:17;;;;;;;413.47;139.53;;;;;;;0.47;75.43;98887.06;4979817;28;20138;-66
2021/03/10 06:16:43;;;;;;;422.90;136.00;;;;;;;0.51;75.97;98885.47;4979517;28;20636;-64
2021/03/10 06:19:08;;;;;;;424.23;137.53;;;;;;;0.45;75.49;98887.88;4980728;28;20158;-64
2021/03/10 06:21:33;;;;;;;430.60;139.80;;;;;;;0.44;75.63;98887.00;4977366;28;20031;-66
2021/03/10 06:24:02;;;;;;;428.87;138.57;;;;;;;0.43;75.63;98882.78;4977331;28;20031;-71
2021/03/10 06:26:33;;;;;;;427.73;137.30;;;;;;;0.50;76.13;98893.03;4976888;28;20292;-68
2021/03/10 06:29:00;;;;;;;427.70;141.30;;;;;;;0.56;75.82;98896.53;4979422;28;20646;-68
2021/03/10 06:31:26;;;;;;;426.20;136.80;;;;;;;0.54;75.92;98903.22;4979573;28;20287;-70
2021/03/10 06:34:17;;;;;;;425.70;143.00;;;;;;;0.67;75.80;98902.72;4977061;28;20563;-70
2021/03/10 06:36:48;;;;;;;424.17;138.97;;;;;;;0.74;75.84;98897.00;4973524;28;20066;-68
2021/03/10 06:39:24;;;;;;;434.33;145.20;;;;;;;0.91;75.49;98902.44;4975227;28;20667;-68
2021/03/10 06:41:49;;;;;;;;;;;;;;;1.18;74.73;98904.75;4976660;28;20273;-69
2021/03/10 06:44:14;;;;;;;38.43;17.50;;;;;;;1.32;73.70;98913.44;4974932;28;19925;-69
2021/03/10 06:47:00;;;;;;;44.43;18.53;;;;;;;1.64;72.79;98912.47;4977825;28;20414;-69
2021/03/10 06:49:30;;;;;;;;;;;;;;;1.82;72.49;98909.47;4977144;28;20086;-70
2021/03/10 06:52:00;;;;;;;40.20;16.60;;;;;;;1.92;71.15;98915.53;4977038;28;19918;-69
2021/03/10 06:54:30;;;;;;;41.43;16.20;;;;;;;2.11;69.78;98910.03;4975569;28;20028;-70
2021/03/10 06:57:04;;;;;;;43.00;16.60;;;;;;;2.19;69.04;98908.50;4976115;28;20316;-70
2021/03/10 06:59:42;;;;;;;54.75;19.58;;;;;;;2.34;68.89;98902.84;4973760;28;20110;-70
2021/03/10 07:02:31;;;;;;;40.43;15.27;;;;;;;2.57;67.55;98901.59;4975207;28;20093;-70
2021/03/10 07:04:57;;;;;;;30.17;14.37;;;;;;;2.67;67.08;98901.75;4979799;28;20034;-70
2021/03/10 07:07:25;;;;;;;30.03;13.03;;;;;;;2.81;65.74;98908.72;4976884;28;20113;-70
2021/03/10 07:09:51;;;;;;;32.23;13.87;;;;;;;2.85;66.00;98910.47;4977035;28;20081;-70
2021/03/10 07:12:18;;;;;;;26.70;13.67;;;;;;;2.85;65.18;98910.47;4976653;28;20041;-71
2021/03/10 07:14:44;;;;;;;24.17;13.37;;;;;;;2.80;64.71;98912.94;4977737;28;20053;-69
2021/03/10 07:17:13;;;;;;;32.03;14.70;;;;;;;2.95;64.10;98917.41;4975964;28;20039;-69
2021/03/10 07:19:39;;;;;;;26.60;13.30;;;;;;;3.15;63.88;98916.00;4977275;28;20105;-69
2021/03/10 07:22:13;;;;;;;36.47;17.03;;;;;;;3.21;64.32;98918.66;4974708;28;20343;-69
2021/03/10 07:24:57;;;;;;;37.83;15.45;;;;;;;3.25;63.84;98922.94;4975095;28;20066;-70
2021/03/10 07:27:24;;;;;;;37.37;15.83;;;;;;;3.44;63.58;98929.09;4970466;28;20293;-71
2021/03/10 07:29:58;;;;;;;41.73;16.77;;;;;;;3.74;62.70;98918.50;4970920;28;20041;-69
2021/03/10 07:32:25;;;;;;;33.30;14.40;;;;;;;3.90;61.44;98921.28;4975438;28;20031;-70
2021/03/10 07:35:00;;;;;;;28.23;13.07;;;;;;;4.22;59.94;98924.16;4977339;28;20372;-69
2021/03/10 07:37:26;;;;;;;24.40;12.73;;;;;;;4.38;59.08;98917.56;4974439;28;20038;-69
2021/03/10 07:39:51;;;;;;;29.33;13.50;;;;;;;4.51;58.56;98916.84;4975461;28;20038;-69
2021/03/10 07:42:17;;;;;;;23.57;11.37;;;;;;;4.29;59.12;98918.31;4976171;28;20081;-70
2021/03/10 07:44:55;;;;;;;27.00;12.20;;;;;;;4.05;59.59;98915.50;4976737;28;20077;-70
2021/03/10 07:47:20;;;;;;;32.33;14.23;;;;;;;3.98;58.48;98922.22;4976979;28;20031;-70
2021/03/10 07:49:56;;;;;;;25.73;12.87;;;;;;;4.11;59.20;98923.22;4975363;28;20055;-70
2021/03/10 07:52:22;;;;;;;25.77;12.57;;;;;;;3.98;58.52;98921.38;4975844;28;20477;-69
2021/03/10 07:54:58;;;;;;;28.97;13.63;;;;;;;3.92;58.80;98929.75;4978530;28;20098;-69
2021/03/10 07:57:24;;;;;;;29.83;11.90;;;;;;;3.86;59.18;98928.84;4979295;28;20042;-70
2021/03/10 08:00:09;;;;;;;23.70;11.80;;;;;;;4.07;59.21;98932.44;4982250;28;20035;-70
2021/03/10 08:02:43;;;;;;;23.30;11.43;;;;;;;4.23;58.39;98938.56;4978394;28;20054;-69
2021/03/10 08:05:21;;;;;;;26.53;12.23;;;;;;;4.10;57.63;98929.97;4977055;28;20276;-70
2021/03/10 08:07:46;;;;;;;25.40;13.33;;;;;;;4.28;57.43;98939.47;4976421;28;20034;-69
2021/03/10 08:10:12;;;;;;;27.50;12.90;;;;;;;4.64;56.96;98943.19;4976783;28;20048;-69
2021/03/10 08:12:40;;;;;;;20.97;10.13;;;;;;;5.00;55.02;98943.53;4976075;28;20035;-69
2021/03/10 08:15:06;;;;;;;24.40;11.33;;;;;;;4.89;54.69;98945.13;4976135;28;20069;-69
2021/03/10 08:17:31;;;;;;;27.63;12.27;;;;;;;5.07;54.53;98941.06;4976456;28;20066;-70
2021/03/10 08:20:05;;;;;;;21.57;11.37;;;;;;;5.21;54.63;98943.69;4978845;28;20087;-69
2021/03/10 08:22:32;;;;;;;22.20;10.90;;;;;;;5.35;53.26;98947.16;4976857;28;20077;-69
2021/03/10 08:24:59;;;;;;;29.63;13.30;;;;;;;5.47;52.71;98952.34;4978151;28;20113;-69
2021/03/10 08:27:37;;;;;;;27.60;13.27;;;;;;;4.99;52.70;98952.00;4979347;28;20038;-70
2021/03/10 08:30:06;;;;;;;27.00;12.73;;;;;;;5.37;52.12;98944.66;4980053;28;20035;-70
2021/03/10 08:32:33;;;;;;;25.97;12.50;;;;;;;5.45;51.37;98950.63;4980997;28;20041;-69
2021/03/10 08:35:13;;;;;;;19.97;9.90;;;;;;;5.80;51.19;98950.84;4979292;28;20057;-70
2021/03/10 08:37:41;;;;;;;26.13;11.70;;;;;;;5.87;50.27;98950.06;4978428;28;20034;-70
2021/03/10 08:40:10;;;;;;;22.03;11.57;;;;;;;5.79;49.70;98939.81;4979148;28;20113;-70
2021/03/10 08:42:35;;;;;;;23.80;11.37;;;;;;;5.91;49.38;98950.06;4979177;28;20334;-69
2021/03/10 08:45:01;;;;;;;21.07;9.87;;;;;;;5.76;48.32;98946.59;4979381;28;20035;-69
2021/03/10 08:47:27;;;;;;;21.70;10.87;;;;;;;5.89;48.35;98945.84;4978212;28;20041;-69
2021/03/10 08:49:58;;;;;;;22.57;11.30;;;;;;;5.77;47.50;98946.56;4977394;28;20390;-69
2021/03/10 08:52:25;;;;;;;22.93;11.23;;;;;;;5.73;48.62;98946.56;4979082;28;20031;-70
2021/03/10 08:55:02;;;;;;;17.97;9.53;;;;;;;5.90;49.79;98952.59;4977610;28;20065;-70
2021/03/10 08:57:35;;;;;;;19.43;10.10;;;;;;;5.90;50.41;98952.59;4982362;28;20130;-69
2021/03/10 09:00:07;;;;;;;20.87;10.00;;;;;;;5.87;50.33;98950.06;4977290;28;20113;-70
2021/03/10 09:02:37;;;;;;;23.90;10.90;;;;;;;5.87;49.46;98950.91;4979958;28;20066;-70
2021/03/10 09:05:07;;;;;;;24.57;11.40;;;;;;;6.01;48.28;98945.88;4978153;28;20038;-70
2021/03/10 09:07:33;;;;;;;16.20;9.00;;;;;;;6.01;47.58;98943.34;4979358;28;20037;-70
2021/03/10 09:10:07;;;;;;;20.67;10.30;;;;;;;6.17;48.16;98932.38;4979559;28;20030;-70
2021/03/10 09:12:33;;;;;;;26.80;12.27;;;;;;;6.61;46.93;98931.63;4976360;28;20035;-70
2021/03/10 09:14:58;;;;;;;22.43;10.90;;;;;;;6.86;46.19;98933.34;4977392;28;20085;-69
2021/03/10 09:17:36;;;;;;;20.87;9.47;;;;;;;7.19;46.07;98933.34;4979170;28;20077;-70
2021/03/10 09:20:09;;;;;;;23.87;12.27;;;;;;;7.50;45.58;98933.31;4974650;28;20279;-70
2021/03/10 09:22:43;;;;;;;21.23;10.87;;;;;;;7.39;46.37;98935.88;4976777;28;20041;-71
2021/03/10 09:25:11;;;;;;;20.50;10.37;;;;;;;7.53;45.64;98930.75;4976542;28;20034;-68
2021/03/10 09:27:37;;;;;;;27.00;12.17;;;;;;;7.54;45.36;98937.56;4978198;28;20367;-68
2021/03/10 09:30:10;;;;;;;18.13;8.67;;;;;;;7.52;44.47;98931.59;4977342;28;20411;-70
2021/03/10 09:32:47;;;;;;;21.47;10.80;;;;;;;7.24;43.97;98934.19;4978326;28;20061;-69
2021/03/10 09:35:24;;;;;;;18.27;10.13;;;;;;;7.22;43.42;98928.22;4978891;28;20031;-68
2021/03/10 09:38:03;;;;;;;23.47;10.50;;;;;;;7.20;45.50;98931.66;4977289;28;20050;-70
2021/03/10 09:40:44;;;;;;;21.03;11.00;;;;;;;7.45;46.28;98925.66;4979594;28;20037;-70
2021/03/10 09:43:21;;;;;;;21.90;11.97;;;;;;;7.64;45.51;98911.16;4976248;28;20049;-69
2021/03/10 09:45:48;;;;;;;18.53;10.03;;;;;;;7.58;45.56;98923.94;4978153;28;20069;-69
2021/03/10 09:48:26;;;;;;;19.07;11.17;;;;;;;7.57;44.83;98932.44;4978991;28;20331;-69
2021/03/10 09:51:00;;;;;;;18.10;10.53;;;;;;;7.69;44.34;98934.94;4980073;28;20034;-71
2021/03/10 09:53:26;;;;;;;18.63;10.67;;;;;;;7.60;44.73;98932.41;4979530;28;20293;-70
2021/03/10 09:56:03;;;;;;;28.67;14.10;;;;;;;7.76;44.62;98929.84;4976054;28;20030;-70
2021/03/10 09:58:28;;;;;;;23.13;11.00;;;;;;;7.45;45.35;98927.38;4976101;28;20118;-69
2021/03/10 10:00:59;;;;;;;20.63;11.77;;;;;;;6.70;47.05;98934.19;4979227;28;20121;-70
2021/03/10 10:03:25;;;;;;;24.73;12.80;;;;;;;6.83;47.03;98934.19;4977281;28;20081;-69
2021/03/10 10:05:51;;;;;;;21.90;13.30;;;;;;;6.99;46.15;98918.91;4976925;28;20376;-69
2021/03/10 10:08:17;;;;;;;26.63;12.57;;;;;;;7.00;45.93;98934.19;4977317;28;20046;-68
2021/03/10 10:10:42;;;;;;;22.90;11.57;;;;;;;7.33;45.59;98934.19;4978524;28;20427;-69
2021/03/10 10:13:08;;;;;;;20.10;10.70;;;;;;;7.29;45.66;98940.16;4976775;28;20031;-69
2021/03/10 10:15:33;;;;;;;25.57;11.97;;;;;;;7.27;45.20;98941.84;4976343;28;20134;-69
2021/03/10 10:18:02;;;;;;;19.50;10.20;;;;;;;7.42;45.15;98932.47;4978133;28;20058;-70
2021/03/10 10:20:30;;;;;;;18.97;11.60;;;;;;;7.41;44.94;98946.06;4978212;28;20475;-70
2021/03/10 10:22:56;;;;;;;18.53;11.20;;;;;;;6.97;46.37;98949.50;4976116;28;20027;-69
2021/03/10 10:25:22;;;;;;;23.37;12.17;;;;;;;6.30;49.02;98951.06;4977178;28;20042;-69
2021/03/10 10:27:49;;;;;;;27.93;13.07;;;;;;;6.65;48.01;98941.81;4975925;28;20196;-69
2021/03/10 10:30:15;;;;;;;26.07;13.50;;;;;;;7.14;46.68;98947.78;4976190;28;20035;-69
2021/03/10 10:32:45;;;;;;;42.03;18.30;;;;;;;7.42;46.19;98945.22;4974347;28;20058;-70
2021/03/10 10:35:12;;;;;;;26.80;13.03;;;;;;;7.64;46.08;98939.22;4978560;28;20030;-70
2021/03/10 10:37:38;;;;;;;26.67;12.83;;;;;;;7.84;46.19;98941.72;4976526;28;20038;-69
2021/03/10 10:40:07;;;;;;;34.17;16.27;;;;;;;8.16;45.16;98932.22;4976473;28;20057;-69
2021/03/10 10:42:33;;;;;;;25.73;12.97;;;;;;;7.66;45.75;98938.38;4976782;28;20034;-69
2021/03/10 10:44:58;;;;;;;23.30;12.13;;;;;;;7.93;45.09;98932.34;4977582;28;20045;-69
2021/03/10 10:47:24;;;;;;;25.07;12.67;;;;;;;6.82;47.44;98935.06;4976744;28;20037;-68
2021/03/10 10:49:49;;;;;;;21.10;12.00;;;;;;;7.02;47.71;98936.75;4976959;28;20054;-69
2021/03/10 10:52:15;;;;;;;22.73;12.57;;;;;;;7.38;46.75;98943.53;4978621;28;20368;-69
2021/03/10 10:54:40;;;;;;;23.77;12.70;;;;;;;7.79;46.50;98932.38;4980374;28;20058;-72
2021/03/10 10:57:06;;;;;;;34.23;12.03;;;;;;;7.87;46.24;98934.91;4981966;28;20090;-69
2021/03/10 10:59:32;;;;;;;24.33;12.70;;;;;;;8.13;46.08;98932.25;4982067;28;20037;-68
2021/03/10 11:01:58;;;;;;;23.87;12.67;;;;;;;8.17;45.72;98928.81;4983097;28;20078;-69
2021/03/10 11:04:23;;;;;;;21.23;11.53;;;;;;;8.36;45.46;98929.63;4981842;28;20114;-71
2021/03/10 11:06:49;;;;;;;24.77;12.63;;;;;;;7.86;45.88;98934.91;4982551;28;20054;-70
2021/03/10 11:09:14;;;;;;;26.37;12.57;;;;;;;7.62;45.96;98930.72;4982412;28;20027;-69
2021/03/10 11:11:40;;;;;;;24.17;12.00;;;;;;;7.77;46.19;98923.88;4984324;28;20030;-69
2021/03/10 11:14:06;;;;;;;18.53;10.63;;;;;;;7.88;45.01;98926.41;4981661;28;20018;-70
2021/03/10 11:16:31;;;;;;;24.43;12.70;;;;;;;8.13;44.44;98930.56;4978979;28;20027;-69
2021/03/10 11:18:56;;;;;;;20.50;10.93;;;;;;;7.05;46.31;98924.00;4978425;28;20019;-69
2021/03/10 11:21:22;;;;;;;23.60;11.67;;;;;;;7.60;44.53;98917.09;4979506;28;20353;-69
2021/03/10 11:23:47;;;;;;;25.17;12.93;;;;;;;8.04;43.84;98909.31;4978204;28;20035;-69